N650LV SABE-LEMD
Flight info
| Callsign | N650LV |
|---|---|
| Flight time | N/A |
| Altitude | 39000 |
| Route | KUKEN8 KUKEN DCT MIMOL UN857 DOKPU/N0511F410 UN857 OPADU DCT GUNET N857 DEREV/N0512F430 N857 LZR DCT OXACA DCT SOTUK |
| Aircraft | GLF6/M-SBDE2E3FGHIJ3J4J5P2RWXYZ/LB2D1 |
Departure
| Time | 2026-05-06 15:42 |
|---|---|
| Airport | Aeroparque Jorge Newbery (SABE) |
Arrival
| Time | N/A |
|---|---|
| Airport | Adolfo Suárez Madrid–Barajas Airport (LEMD) |
| Time | Latitude | Longitude | Altitude | Speed | Heading |
|---|---|---|---|---|---|
| 2026-05-06 15:24 | -34.56340 | -58.41141 | 27 ft | 0 kts | 213° |
| 2026-05-06 15:35 | -34.56341 | -58.41142 | 27 ft | 0 kts | 213° |
| 2026-05-06 15:36 | -34.56344 | -58.41144 | 27 ft | 0 kts | 213° |
| 2026-05-06 15:36 | -34.56349 | -58.41148 | 27 ft | 1 kts | 213° |
| 2026-05-06 15:36 | -34.56356 | -58.41163 | 27 ft | 3 kts | 255° |
| 2026-05-06 15:36 | -34.56350 | -58.41201 | 27 ft | 6 kts | 296° |
| 2026-05-06 15:37 | -34.56319 | -58.41255 | 27 ft | 9 kts | 304° |
| 2026-05-06 15:37 | -34.56278 | -58.41330 | 26 ft | 12 kts | 303° |
| 2026-05-06 15:37 | -34.56229 | -58.41418 | 26 ft | 12 kts | 304° |
| 2026-05-06 15:37 | -34.56181 | -58.41488 | 27 ft | 10 kts | 341° |
| 2026-05-06 15:38 | -34.56113 | -58.41443 | 27 ft | 12 kts | 33° |
| 2026-05-06 15:38 | -34.56027 | -58.41408 | 27 ft | 15 kts | 338° |
| 2026-05-06 15:38 | -34.55949 | -58.41524 | 27 ft | 20 kts | 305° |
| 2026-05-06 15:38 | -34.55861 | -58.41684 | 27 ft | 25 kts | 303° |
| 2026-05-06 15:39 | -34.55751 | -58.41878 | 27 ft | 30 kts | 304° |
| 2026-05-06 15:39 | -34.55628 | -58.42099 | 27 ft | 29 kts | 304° |
| 2026-05-06 15:39 | -34.55509 | -58.42313 | 27 ft | 31 kts | 305° |
| 2026-05-06 15:39 | -34.55385 | -58.42536 | 27 ft | 31 kts | 303° |
| 2026-05-06 15:40 | -34.55315 | -58.42727 | 27 ft | 19 kts | 279° |
| 2026-05-06 15:40 | -34.55271 | -58.42813 | 27 ft | 10 kts | 32° |
| 2026-05-06 15:40 | -34.55274 | -58.42736 | 27 ft | 6 kts | 122° |
| 2026-05-06 15:40 | -34.55275 | -58.42733 | 27 ft | 0 kts | 122° |
| 2026-05-06 15:41 | -34.55370 | -58.42565 | 27 ft | 70 kts | 123° |
| 2026-05-06 15:41 | -34.55816 | -58.41767 | 29 ft | 156 kts | 123° |
| 2026-05-06 15:42 | -34.56509 | -58.40523 | 500 ft | 195 kts | 122° |
| 2026-05-06 15:42 | -34.57173 | -58.39148 | 1141 ft | 176 kts | 108° |
| 2026-05-06 15:42 | -34.57099 | -58.37621 | 1718 ft | 200 kts | 60° |
| 2026-05-06 15:42 | -34.56118 | -58.36444 | 2560 ft | 207 kts | 34° |
| 2026-05-06 15:43 | -34.54829 | -58.35419 | 3388 ft | 240 kts | 33° |
| 2026-05-06 15:43 | -34.53337 | -58.34249 | 4225 ft | 265 kts | 32° |
| 2026-05-06 15:43 | -34.51794 | -58.33025 | 4993 ft | 269 kts | 32° |
| 2026-05-06 15:43 | -34.50240 | -58.31786 | 5739 ft | 272 kts | 32° |
| 2026-05-06 15:44 | -34.48670 | -58.30533 | 6489 ft | 274 kts | 32° |
| 2026-05-06 15:44 | -34.47098 | -58.29270 | 7231 ft | 278 kts | 32° |
| 2026-05-06 15:44 | -34.45468 | -58.27954 | 7991 ft | 282 kts | 32° |
| 2026-05-06 15:44 | -34.43843 | -58.26644 | 8740 ft | 285 kts | 32° |
| 2026-05-06 15:45 | -34.42178 | -58.25301 | 9496 ft | 290 kts | 32° |
| 2026-05-06 15:45 | -34.40546 | -58.23985 | 10224 ft | 300 kts | 32° |
| 2026-05-06 15:45 | -34.38742 | -58.22536 | 11040 ft | 322 kts | 32° |
| 2026-05-06 15:45 | -34.36830 | -58.21006 | 11836 ft | 343 kts | 32° |
| 2026-05-06 15:46 | -34.34840 | -58.19430 | 12611 ft | 358 kts | 30° |
| 2026-05-06 15:46 | -34.32482 | -58.18412 | 13114 ft | 371 kts | 5° |
| 2026-05-06 15:46 | -34.29981 | -58.18808 | 14110 ft | 366 kts | 338° |
| 2026-05-06 15:46 | -34.27596 | -58.19871 | 15060 ft | 368 kts | 342° |
| 2026-05-06 15:47 | -34.25063 | -58.20538 | 15736 ft | 379 kts | 348° |
| 2026-05-06 15:47 | -34.22458 | -58.20941 | 16622 ft | 384 kts | 356° |
| 2026-05-06 15:47 | -34.19808 | -58.20283 | 17360 ft | 398 kts | 21° |
| 2026-05-06 15:47 | -34.17487 | -58.18454 | 18196 ft | 407 kts | 40° |
| 2026-05-06 15:48 | -34.15794 | -58.15846 | 18869 ft | 418 kts | 56° |
| 2026-05-06 15:48 | -34.14309 | -58.12776 | 19669 ft | 424 kts | 59° |
| 2026-05-06 15:48 | -34.12917 | -58.09649 | 20381 ft | 432 kts | 60° |
| 2026-05-06 15:48 | -34.11498 | -58.06408 | 21153 ft | 438 kts | 60° |
| 2026-05-06 15:49 | -34.10064 | -58.03131 | 21919 ft | 445 kts | 60° |
| 2026-05-06 15:49 | -34.08631 | -57.99853 | 22644 ft | 451 kts | 59° |
| 2026-05-06 15:49 | -34.07147 | -57.96465 | 23387 ft | 457 kts | 59° |
| 2026-05-06 15:49 | -34.05658 | -57.93067 | 24087 ft | 463 kts | 59° |
| 2026-05-06 15:50 | -34.04141 | -57.89609 | 24754 ft | 469 kts | 59° |
| 2026-05-06 15:50 | -34.02609 | -57.86120 | 25412 ft | 475 kts | 59° |
| 2026-05-06 15:50 | -34.01080 | -57.82641 | 26056 ft | 480 kts | 59° |
| 2026-05-06 15:50 | -33.99532 | -57.79123 | 26660 ft | 486 kts | 59° |
| 2026-05-06 15:51 | -33.97929 | -57.75483 | 27266 ft | 491 kts | 58° |
| 2026-05-06 15:51 | -33.96312 | -57.71816 | 27866 ft | 496 kts | 58° |
| 2026-05-06 15:51 | -33.94681 | -57.68121 | 28439 ft | 501 kts | 58° |
| 2026-05-06 15:51 | -33.93057 | -57.64444 | 28984 ft | 506 kts | 58° |
| 2026-05-06 15:52 | -33.91384 | -57.60662 | 29538 ft | 511 kts | 58° |
| 2026-05-06 15:52 | -33.89707 | -57.56874 | 30073 ft | 516 kts | 58° |
| 2026-05-06 15:52 | -33.88008 | -57.53042 | 30589 ft | 520 kts | 58° |
| 2026-05-06 15:52 | -33.86302 | -57.49197 | 31093 ft | 525 kts | 58° |
| 2026-05-06 15:53 | -33.84561 | -57.45279 | 31582 ft | 529 kts | 57° |
| 2026-05-06 15:53 | -33.82824 | -57.41375 | 31987 ft | 533 kts | 57° |
| 2026-05-06 15:53 | -33.81066 | -57.37424 | 32535 ft | 533 kts | 57° |
| 2026-05-06 15:53 | -33.79333 | -57.33534 | 33124 ft | 532 kts | 56° |
| 2026-05-06 15:54 | -33.77593 | -57.29634 | 33630 ft | 532 kts | 56° |
| 2026-05-06 15:54 | -33.75833 | -57.25696 | 34122 ft | 531 kts | 56° |
| 2026-05-06 15:54 | -33.74103 | -57.21829 | 34632 ft | 530 kts | 56° |
| 2026-05-06 15:54 | -33.72327 | -57.17862 | 35161 ft | 529 kts | 56° |
| 2026-05-06 15:55 | -33.70594 | -57.13995 | 35652 ft | 527 kts | 56° |
| 2026-05-06 15:55 | -33.68851 | -57.10109 | 36187 ft | 525 kts | 56° |
| 2026-05-06 15:55 | -33.67117 | -57.06249 | 36607 ft | 525 kts | 56° |
| 2026-05-06 15:55 | -33.65373 | -57.02375 | 36898 ft | 528 kts | 56° |
| 2026-05-06 15:56 | -33.63636 | -56.98516 | 37256 ft | 529 kts | 56° |
| 2026-05-06 15:56 | -33.61886 | -56.94631 | 37595 ft | 530 kts | 56° |
| 2026-05-06 15:56 | -33.60141 | -56.90766 | 37916 ft | 531 kts | 56° |
| 2026-05-06 15:56 | -33.58371 | -56.86845 | 38260 ft | 532 kts | 55° |
| 2026-05-06 15:57 | -33.56610 | -56.82952 | 38570 ft | 533 kts | 56° |
| 2026-05-06 15:57 | -33.54852 | -56.79068 | 38886 ft | 534 kts | 55° |
| 2026-05-06 15:57 | -33.51253 | -56.71137 | 38928 ft | 551 kts | 56° |
| 2026-05-06 15:58 | -33.47559 | -56.63005 | 38930 ft | 566 kts | 56° |
| 2026-05-06 15:58 | -33.43761 | -56.54667 | 38943 ft | 575 kts | 56° |
| 2026-05-06 15:59 | -33.39924 | -56.46262 | 38926 ft | 578 kts | 56° |
| 2026-05-06 15:59 | -33.36035 | -56.37766 | 38922 ft | 579 kts | 56° |
| 2026-05-06 16:00 | -33.32308 | -56.29640 | 38904 ft | 578 kts | 55° |
| 2026-05-06 16:00 | -33.28439 | -56.21226 | 38907 ft | 577 kts | 55° |
| 2026-05-06 16:01 | -33.24594 | -56.12884 | 38909 ft | 578 kts | 55° |
| 2026-05-06 16:01 | -33.20711 | -56.04478 | 38911 ft | 578 kts | 56° |
| 2026-05-06 16:02 | -33.16824 | -55.96084 | 38911 ft | 578 kts | 56° |
| 2026-05-06 16:02 | -33.12941 | -55.87716 | 38913 ft | 578 kts | 55° |
| 2026-05-06 16:03 | -33.09045 | -55.79341 | 38914 ft | 578 kts | 55° |
| 2026-05-06 16:03 | -33.05148 | -55.70983 | 38916 ft | 580 kts | 55° |
| 2026-05-06 16:04 | -33.01205 | -55.62548 | 38917 ft | 581 kts | 54° |
| 2026-05-06 16:04 | -32.97272 | -55.54151 | 38918 ft | 582 kts | 54° |
| 2026-05-06 16:05 | -32.93397 | -55.45902 | 38920 ft | 582 kts | 54° |
| 2026-05-06 16:05 | -32.89455 | -55.37523 | 38922 ft | 582 kts | 54° |
| 2026-05-06 16:06 | -32.85486 | -55.29110 | 38906 ft | 581 kts | 53° |
| 2026-05-06 16:06 | -32.81539 | -55.20763 | 38909 ft | 582 kts | 53° |
| 2026-05-06 16:07 | -32.77580 | -55.12408 | 38913 ft | 582 kts | 53° |
| 2026-05-06 16:07 | -32.73621 | -55.04072 | 38932 ft | 583 kts | 53° |
| 2026-05-06 16:08 | -32.69603 | -54.95631 | 38970 ft | 584 kts | 53° |
| 2026-05-06 16:08 | -32.65604 | -54.87250 | 39009 ft | 584 kts | 53° |
| 2026-05-06 16:09 | -32.61624 | -54.78930 | 39024 ft | 584 kts | 53° |
| 2026-05-06 16:09 | -32.57621 | -54.70577 | 39026 ft | 584 kts | 53° |
| 2026-05-06 16:10 | -32.53614 | -54.62237 | 39027 ft | 583 kts | 53° |
| 2026-05-06 16:10 | -32.49622 | -54.53947 | 39003 ft | 580 kts | 53° |
| 2026-05-06 16:11 | -32.45607 | -54.45627 | 39004 ft | 581 kts | 53° |
| 2026-05-06 16:11 | -32.41587 | -54.37315 | 39006 ft | 581 kts | 53° |
| 2026-05-06 16:12 | -32.37584 | -54.29058 | 38984 ft | 580 kts | 52° |
| 2026-05-06 16:12 | -32.33320 | -54.21059 | 38983 ft | 569 kts | 43° |
| 2026-05-06 16:13 | -32.28191 | -54.13971 | 38997 ft | 565 kts | 40° |
| 2026-05-06 16:13 | -32.23035 | -54.06990 | 39007 ft | 565 kts | 40° |
| 2026-05-06 16:14 | -32.17883 | -54.00028 | 39017 ft | 565 kts | 40° |
| 2026-05-06 16:14 | -32.12712 | -53.93050 | 39018 ft | 565 kts | 40° |
| 2026-05-06 16:15 | -32.07522 | -53.86062 | 39020 ft | 565 kts | 40° |
| 2026-05-06 16:15 | -32.02364 | -53.79137 | 39020 ft | 566 kts | 40° |
| 2026-05-06 16:16 | -31.97160 | -53.72163 | 39021 ft | 566 kts | 40° |
| 2026-05-06 16:16 | -31.91946 | -53.65191 | 39023 ft | 566 kts | 40° |
| 2026-05-06 16:17 | -31.86795 | -53.58316 | 39031 ft | 566 kts | 40° |
| 2026-05-06 16:17 | -31.81600 | -53.51394 | 39031 ft | 565 kts | 40° |
| 2026-05-06 16:18 | -31.76384 | -53.44458 | 39034 ft | 566 kts | 40° |
| 2026-05-06 16:18 | -31.71184 | -53.37555 | 39034 ft | 566 kts | 40° |
| 2026-05-06 16:19 | -31.65964 | -53.30637 | 39009 ft | 565 kts | 39° |
| 2026-05-06 16:19 | -31.60756 | -53.23750 | 39014 ft | 565 kts | 39° |
| 2026-05-06 16:20 | -31.55543 | -53.16869 | 39016 ft | 566 kts | 39° |
| 2026-05-06 16:20 | -31.50316 | -53.09980 | 39017 ft | 566 kts | 39° |
| 2026-05-06 16:21 | -31.45112 | -53.03136 | 39019 ft | 566 kts | 39° |
| 2026-05-06 16:21 | -31.39883 | -52.96271 | 39019 ft | 566 kts | 39° |
| 2026-05-06 16:22 | -31.34637 | -52.89395 | 39021 ft | 567 kts | 39° |
| 2026-05-06 16:22 | -31.29391 | -52.82528 | 39023 ft | 568 kts | 39° |
| 2026-05-06 16:23 | -31.24112 | -52.75623 | 39023 ft | 567 kts | 39° |
| 2026-05-06 16:23 | -31.18872 | -52.68791 | 39024 ft | 567 kts | 39° |
| 2026-05-06 16:24 | -31.13626 | -52.61964 | 39025 ft | 567 kts | 39° |
| 2026-05-06 16:24 | -31.08360 | -52.55125 | 39026 ft | 567 kts | 39° |
| 2026-05-06 16:25 | -31.03102 | -52.48307 | 39029 ft | 567 kts | 39° |
| 2026-05-06 16:25 | -30.97877 | -52.41541 | 39023 ft | 556 kts | 39° |
| 2026-05-06 16:26 | -30.92752 | -52.34920 | 39025 ft | 549 kts | 38° |
| 2026-05-06 16:26 | -30.87642 | -52.28400 | 39020 ft | 542 kts | 38° |
| 2026-05-06 16:27 | -30.82532 | -52.22014 | 39018 ft | 542 kts | 37° |
| 2026-05-06 16:27 | -30.77340 | -52.15538 | 39019 ft | 543 kts | 37° |
| 2026-05-06 16:28 | -30.72168 | -52.09097 | 39020 ft | 542 kts | 37° |
| 2026-05-06 16:28 | -30.67063 | -52.02747 | 39021 ft | 543 kts | 37° |
| 2026-05-06 16:29 | -30.61926 | -51.96366 | 39023 ft | 544 kts | 38° |
| 2026-05-06 16:29 | -30.56752 | -51.89949 | 39019 ft | 543 kts | 38° |
| 2026-05-06 16:30 | -30.52418 | -51.84583 | 39023 ft | 545 kts | 38° |
| 2026-05-06 16:30 | -30.46376 | -51.77113 | 39024 ft | 543 kts | 38° |
| 2026-05-06 16:31 | -30.41412 | -51.70753 | 39027 ft | 546 kts | 39° |
| 2026-05-06 16:31 | -30.36807 | -51.64741 | 39025 ft | 547 kts | 39° |
| 2026-05-06 16:32 | -30.31644 | -51.58014 | 39027 ft | 547 kts | 39° |
| 2026-05-06 16:32 | -30.26579 | -51.51424 | 39029 ft | 546 kts | 39° |
| 2026-05-06 16:33 | -30.21537 | -51.44878 | 39026 ft | 547 kts | 39° |
| 2026-05-06 16:34 | -30.13956 | -51.35053 | 39027 ft | 547 kts | 39° |
| 2026-05-06 16:34 | -30.08892 | -51.28505 | 39012 ft | 546 kts | 39° |
| 2026-05-06 16:35 | -30.03848 | -51.21993 | 39012 ft | 546 kts | 39° |
| 2026-05-06 16:35 | -29.98773 | -51.15456 | 39013 ft | 546 kts | 39° |
| 2026-05-06 16:36 | -29.93674 | -51.08916 | 39012 ft | 547 kts | 39° |
| 2026-05-06 16:36 | -29.88596 | -51.02414 | 39020 ft | 546 kts | 38° |
| 2026-05-06 16:37 | -29.83508 | -50.95909 | 39024 ft | 547 kts | 38° |
| 2026-05-06 16:37 | -29.78445 | -50.89447 | 39025 ft | 546 kts | 38° |
| 2026-05-06 16:38 | -29.73350 | -50.82958 | 39022 ft | 546 kts | 38° |
| 2026-05-06 16:38 | -29.68286 | -50.76517 | 39022 ft | 547 kts | 38° |
| 2026-05-06 16:39 | -29.63190 | -50.70045 | 39026 ft | 546 kts | 38° |
| 2026-05-06 16:39 | -29.58085 | -50.63573 | 39029 ft | 547 kts | 38° |
| 2026-05-06 16:40 | -29.53012 | -50.57156 | 39026 ft | 546 kts | 37° |
| 2026-05-06 16:40 | -29.47810 | -50.50811 | 39030 ft | 545 kts | 36° |
| 2026-05-06 16:40 | -29.45236 | -50.47688 | 39151 ft | 541 kts | 36° |
| 2026-05-06 16:41 | -29.42657 | -50.44565 | 39190 ft | 541 kts | 36° |
| 2026-05-06 16:41 | -29.37479 | -50.38298 | 39193 ft | 541 kts | 36° |
| 2026-05-06 16:42 | -29.32311 | -50.32054 | 39170 ft | 541 kts | 36° |
| 2026-05-06 16:42 | -29.27124 | -50.25795 | 39175 ft | 539 kts | 36° |
| 2026-05-06 16:43 | -29.21984 | -50.19605 | 39176 ft | 540 kts | 36° |
| 2026-05-06 16:43 | -29.16791 | -50.13360 | 39179 ft | 542 kts | 36° |
| 2026-05-06 16:44 | -29.11615 | -50.07144 | 39173 ft | 541 kts | 36° |
| 2026-05-06 16:44 | -29.06429 | -50.00928 | 39176 ft | 544 kts | 36° |
| 2026-05-06 16:45 | -29.01159 | -49.94621 | 39177 ft | 549 kts | 37° |
| 2026-05-06 16:45 | -28.95888 | -49.88321 | 39180 ft | 553 kts | 37° |
| 2026-05-06 16:46 | -28.90556 | -49.81952 | 39182 ft | 557 kts | 38° |
| 2026-05-06 16:46 | -28.85356 | -49.75426 | 39189 ft | 559 kts | 39° |
| 2026-05-06 16:47 | -28.80113 | -49.68820 | 39190 ft | 559 kts | 39° |
| 2026-05-06 16:47 | -28.74926 | -49.62296 | 39163 ft | 558 kts | 39° |
| 2026-05-06 16:48 | -28.69720 | -49.55759 | 39132 ft | 558 kts | 39° |
| 2026-05-06 16:48 | -28.64493 | -49.49206 | 39116 ft | 558 kts | 39° |
| 2026-05-06 16:49 | -28.59282 | -49.42684 | 39115 ft | 559 kts | 39° |
| 2026-05-06 16:49 | -28.54057 | -49.36154 | 39114 ft | 558 kts | 39° |
| 2026-05-06 16:50 | -28.48866 | -49.29677 | 39095 ft | 558 kts | 38° |
| 2026-05-06 16:50 | -28.43609 | -49.23128 | 39095 ft | 558 kts | 38° |
| 2026-05-06 16:51 | -28.38393 | -49.16641 | 39097 ft | 557 kts | 38° |
| 2026-05-06 16:51 | -28.33202 | -49.10195 | 39096 ft | 553 kts | 38° |
| 2026-05-06 16:52 | -28.28031 | -49.03782 | 39099 ft | 550 kts | 38° |
| 2026-05-06 16:52 | -28.22946 | -48.97403 | 39099 ft | 547 kts | 39° |
| 2026-05-06 16:53 | -28.17829 | -48.90989 | 39100 ft | 546 kts | 39° |
| 2026-05-06 16:53 | -28.12756 | -48.84635 | 39104 ft | 546 kts | 39° |
| 2026-05-06 16:54 | -28.07684 | -48.78294 | 39105 ft | 546 kts | 39° |
| 2026-05-06 16:54 | -28.02593 | -48.71939 | 39101 ft | 547 kts | 39° |
| 2026-05-06 16:55 | -27.97475 | -48.65559 | 39102 ft | 546 kts | 39° |
| 2026-05-06 16:55 | -27.92380 | -48.59218 | 39104 ft | 546 kts | 39° |
| 2026-05-06 16:56 | -27.87285 | -48.52885 | 39111 ft | 544 kts | 39° |
| 2026-05-06 16:56 | -27.82202 | -48.46579 | 39111 ft | 545 kts | 39° |
| 2026-05-06 16:57 | -27.77115 | -48.40277 | 39114 ft | 545 kts | 39° |
| 2026-05-06 16:57 | -27.72006 | -48.33957 | 39109 ft | 544 kts | 38° |
| 2026-05-06 16:58 | -27.66933 | -48.27690 | 39098 ft | 545 kts | 38° |
| 2026-05-06 16:58 | -27.61832 | -48.21397 | 39098 ft | 544 kts | 38° |
| 2026-05-06 16:59 | -27.56728 | -48.15111 | 39098 ft | 544 kts | 38° |
| 2026-05-06 16:59 | -27.51630 | -48.08843 | 39101 ft | 544 kts | 38° |
| 2026-05-06 17:00 | -27.46532 | -48.02581 | 39102 ft | 544 kts | 38° |
| 2026-05-06 17:00 | -27.41437 | -47.96335 | 39103 ft | 545 kts | 38° |
| 2026-05-06 17:01 | -27.36320 | -47.90094 | 39102 ft | 544 kts | 38° |
| 2026-05-06 17:01 | -27.31170 | -47.83852 | 39103 ft | 545 kts | 38° |
| 2026-05-06 17:02 | -27.26046 | -47.77647 | 39101 ft | 545 kts | 38° |
| 2026-05-06 17:02 | -27.20910 | -47.71438 | 39102 ft | 545 kts | 38° |
| 2026-05-06 17:03 | -27.15758 | -47.65220 | 39110 ft | 545 kts | 38° |
| 2026-05-06 17:03 | -27.10585 | -47.58984 | 39117 ft | 544 kts | 38° |
| 2026-05-06 17:04 | -27.05445 | -47.52799 | 39130 ft | 545 kts | 38° |
| 2026-05-06 17:04 | -27.00305 | -47.46623 | 39134 ft | 543 kts | 39° |
| 2026-05-06 17:05 | -26.95138 | -47.40423 | 39135 ft | 543 kts | 40° |
| 2026-05-06 17:05 | -26.89992 | -47.34255 | 39130 ft | 540 kts | 40° |
| 2026-05-06 17:06 | -26.84907 | -47.28170 | 39125 ft | 539 kts | 40° |
| 2026-05-06 17:06 | -26.79795 | -47.22064 | 39127 ft | 539 kts | 40° |
| 2026-05-06 17:07 | -26.74660 | -47.15939 | 39127 ft | 539 kts | 40° |
| 2026-05-06 17:07 | -26.69530 | -47.09839 | 39128 ft | 539 kts | 40° |
| 2026-05-06 17:08 | -26.64400 | -47.03754 | 39128 ft | 539 kts | 40° |
| 2026-05-06 17:08 | -26.59275 | -46.97689 | 39129 ft | 539 kts | 40° |
| 2026-05-06 17:09 | -26.54102 | -46.91602 | 39129 ft | 540 kts | 40° |
| 2026-05-06 17:09 | -26.48938 | -46.85535 | 39130 ft | 540 kts | 40° |
| 2026-05-06 17:10 | -26.43811 | -46.79520 | 39130 ft | 540 kts | 40° |
| 2026-05-06 17:10 | -26.38644 | -46.73466 | 39131 ft | 540 kts | 40° |
| 2026-05-06 17:11 | -26.33433 | -46.67368 | 39117 ft | 539 kts | 40° |
| 2026-05-06 17:11 | -26.30856 | -46.64353 | 39539 ft | 527 kts | 40° |
| 2026-05-06 17:11 | -26.28435 | -46.61515 | 41107 ft | 499 kts | 40° |
| 2026-05-06 17:12 | -26.23558 | -46.55839 | 41105 ft | 515 kts | 40° |
| 2026-05-06 17:12 | -26.18562 | -46.50017 | 41113 ft | 527 kts | 40° |
| 2026-05-06 17:13 | -26.13459 | -46.44077 | 41112 ft | 535 kts | 40° |
| 2026-05-06 17:13 | -26.08314 | -46.38096 | 41108 ft | 537 kts | 40° |
| 2026-05-06 17:14 | -26.03149 | -46.32102 | 41121 ft | 537 kts | 40° |
| 2026-05-06 17:14 | -25.98002 | -46.26136 | 41177 ft | 537 kts | 40° |
| 2026-05-06 17:15 | -25.92872 | -46.20198 | 41218 ft | 536 kts | 40° |
| 2026-05-06 17:15 | -25.87699 | -46.14218 | 41237 ft | 537 kts | 40° |
| 2026-05-06 17:16 | -25.82535 | -46.08257 | 41237 ft | 538 kts | 40° |
| 2026-05-06 17:16 | -25.77363 | -46.02294 | 41237 ft | 538 kts | 40° |
| 2026-05-06 17:17 | -25.72200 | -45.96350 | 41238 ft | 538 kts | 40° |
| 2026-05-06 17:17 | -25.66978 | -45.90345 | 41238 ft | 539 kts | 40° |
| 2026-05-06 17:18 | -25.61803 | -45.84405 | 41239 ft | 539 kts | 40° |
| 2026-05-06 17:18 | -25.56604 | -45.78446 | 41239 ft | 539 kts | 40° |
| 2026-05-06 17:19 | -25.51411 | -45.72501 | 41240 ft | 539 kts | 40° |
| 2026-05-06 17:19 | -25.46197 | -45.66541 | 41240 ft | 539 kts | 40° |
| 2026-05-06 17:20 | -25.40973 | -45.60576 | 41241 ft | 539 kts | 40° |
| 2026-05-06 17:20 | -25.35743 | -45.54614 | 41241 ft | 539 kts | 40° |
| 2026-05-06 17:21 | -25.30531 | -45.48678 | 41242 ft | 539 kts | 40° |
| 2026-05-06 17:21 | -25.25330 | -45.42764 | 41240 ft | 539 kts | 40° |
| 2026-05-06 17:22 | -25.20124 | -45.36852 | 41223 ft | 539 kts | 40° |
| 2026-05-06 17:22 | -25.14901 | -45.30928 | 41187 ft | 538 kts | 39° |
| 2026-05-06 17:23 | -25.09681 | -45.25016 | 41177 ft | 538 kts | 40° |
| 2026-05-06 17:23 | -25.04472 | -45.19124 | 41177 ft | 536 kts | 40° |
| 2026-05-06 17:24 | -24.99289 | -45.13268 | 41178 ft | 534 kts | 41° |
| 2026-05-06 17:24 | -24.94132 | -45.07449 | 41178 ft | 532 kts | 41° |
| 2026-05-06 17:25 | -24.88938 | -45.01595 | 41181 ft | 533 kts | 41° |
| 2026-05-06 17:25 | -24.83768 | -44.95776 | 41183 ft | 534 kts | 42° |
| 2026-05-06 17:26 | -24.78590 | -44.89955 | 41183 ft | 534 kts | 42° |
| 2026-05-06 17:26 | -24.73409 | -44.84139 | 41184 ft | 533 kts | 42° |
| 2026-05-06 17:27 | -24.68232 | -44.78334 | 41184 ft | 533 kts | 42° |
| 2026-05-06 17:27 | -24.63039 | -44.72519 | 41184 ft | 533 kts | 42° |
| 2026-05-06 17:28 | -24.57821 | -44.66683 | 41185 ft | 533 kts | 42° |
| 2026-05-06 17:28 | -24.52655 | -44.60914 | 41185 ft | 533 kts | 42° |
| 2026-05-06 17:29 | -24.47424 | -44.55122 | 41186 ft | 533 kts | 41° |
| 2026-05-06 17:29 | -24.42159 | -44.49373 | 41186 ft | 533 kts | 41° |
| 2026-05-06 17:30 | -24.36946 | -44.43688 | 41186 ft | 533 kts | 41° |
| 2026-05-06 17:30 | -24.31705 | -44.37979 | 41185 ft | 533 kts | 41° |
| 2026-05-06 17:31 | -24.26412 | -44.32220 | 41157 ft | 533 kts | 41° |
| 2026-05-06 17:31 | -24.21164 | -44.26518 | 41139 ft | 533 kts | 41° |
| 2026-05-06 17:32 | -24.15949 | -44.20859 | 41120 ft | 533 kts | 41° |
| 2026-05-06 17:32 | -24.10668 | -44.15135 | 41101 ft | 533 kts | 41° |
| 2026-05-06 17:33 | -24.05402 | -44.09434 | 41099 ft | 533 kts | 41° |
| 2026-05-06 17:33 | -24.00149 | -44.03754 | 41099 ft | 533 kts | 41° |
| 2026-05-06 17:34 | -23.94888 | -43.98072 | 41100 ft | 533 kts | 41° |
| 2026-05-06 17:34 | -23.89649 | -43.92422 | 41100 ft | 533 kts | 41° |
| 2026-05-06 17:35 | -23.84377 | -43.86742 | 41103 ft | 533 kts | 41° |
| 2026-05-06 17:35 | -23.79088 | -43.81051 | 41103 ft | 533 kts | 41° |
| 2026-05-06 17:36 | -23.71197 | -43.72573 | 41104 ft | 533 kts | 41° |
| 2026-05-06 17:36 | -23.65926 | -43.66919 | 41104 ft | 533 kts | 41° |
| 2026-05-06 17:37 | -23.60690 | -43.61158 | 41106 ft | 534 kts | 43° |
| 2026-05-06 17:37 | -23.55566 | -43.55342 | 41105 ft | 534 kts | 43° |
| 2026-05-06 17:38 | -23.50407 | -43.49495 | 41105 ft | 534 kts | 43° |
| 2026-05-06 17:38 | -23.45308 | -43.43658 | 41105 ft | 534 kts | 43° |
| 2026-05-06 17:39 | -23.40189 | -43.37772 | 41106 ft | 534 kts | 43° |
| 2026-05-06 17:39 | -23.35053 | -43.31873 | 41097 ft | 534 kts | 43° |
| 2026-05-06 17:40 | -23.29975 | -43.26077 | 41098 ft | 534 kts | 42° |
| 2026-05-06 17:40 | -23.24748 | -43.20244 | 41099 ft | 534 kts | 42° |
| 2026-05-06 17:41 | -23.19556 | -43.14460 | 41099 ft | 531 kts | 42° |
| 2026-05-06 17:41 | -23.14423 | -43.08747 | 41099 ft | 528 kts | 43° |
| 2026-05-06 17:42 | -23.09298 | -43.03051 | 41099 ft | 525 kts | 43° |
| 2026-05-06 17:42 | -23.04313 | -42.97516 | 41100 ft | 523 kts | 43° |
| 2026-05-06 17:43 | -22.99275 | -42.91930 | 41100 ft | 522 kts | 43° |
| 2026-05-06 17:43 | -22.94776 | -42.85770 | 41111 ft | 525 kts | 54° |
| 2026-05-06 17:44 | -22.90798 | -42.79161 | 41099 ft | 524 kts | 56° |
| 2026-05-06 17:44 | -22.86843 | -42.72535 | 41101 ft | 523 kts | 56° |
| 2026-05-06 17:45 | -22.82714 | -42.66065 | 41061 ft | 521 kts | 48° |
| 2026-05-06 17:45 | -22.80196 | -42.63215 | 41040 ft | 518 kts | 37° |
| 2026-05-06 17:45 | -22.77100 | -42.61329 | 41073 ft | 513 kts | 19° |
| 2026-05-06 17:46 | -22.70405 | -42.58738 | 41054 ft | 514 kts | 21° |
| 2026-05-06 17:46 | -22.63791 | -42.55798 | 41039 ft | 516 kts | 21° |
| 2026-05-06 17:47 | -22.57181 | -42.52856 | 41025 ft | 516 kts | 21° |
| 2026-05-06 17:47 | -22.50513 | -42.49891 | 41013 ft | 516 kts | 21° |
| 2026-05-06 17:48 | -22.43875 | -42.46942 | 41001 ft | 516 kts | 21° |
| 2026-05-06 17:48 | -22.37269 | -42.44010 | 41002 ft | 515 kts | 21° |
| 2026-05-06 17:49 | -22.30596 | -42.41052 | 41016 ft | 515 kts | 21° |
| 2026-05-06 17:49 | -22.23971 | -42.38119 | 41044 ft | 515 kts | 21° |
| 2026-05-06 17:50 | -22.17322 | -42.35180 | 41084 ft | 516 kts | 21° |
| 2026-05-06 17:50 | -22.10640 | -42.32228 | 41113 ft | 515 kts | 20° |
| 2026-05-06 17:51 | -22.04016 | -42.29305 | 41126 ft | 515 kts | 20° |
| 2026-05-06 17:51 | -21.97376 | -42.26378 | 41126 ft | 515 kts | 20° |
| 2026-05-06 17:52 | -21.90756 | -42.23463 | 41126 ft | 515 kts | 20° |
| 2026-05-06 17:52 | -21.84141 | -42.20413 | 41105 ft | 516 kts | 26° |
| 2026-05-06 17:53 | -21.77801 | -42.16775 | 41127 ft | 517 kts | 27° |
| 2026-05-06 17:53 | -21.71517 | -42.13018 | 41128 ft | 517 kts | 27° |
| 2026-05-06 17:54 | -21.65241 | -42.09266 | 41128 ft | 517 kts | 27° |
| 2026-05-06 17:54 | -21.58948 | -42.05506 | 41128 ft | 517 kts | 27° |
| 2026-05-06 17:55 | -21.52633 | -42.01738 | 41128 ft | 517 kts | 27° |
| 2026-05-06 17:55 | -21.46307 | -41.97967 | 41128 ft | 517 kts | 27° |
| 2026-05-06 17:56 | -21.40012 | -41.94218 | 41128 ft | 517 kts | 27° |
| 2026-05-06 17:56 | -21.33772 | -41.90506 | 41128 ft | 517 kts | 27° |
| 2026-05-06 17:57 | -21.27493 | -41.86774 | 41128 ft | 517 kts | 27° |
| 2026-05-06 17:57 | -21.21222 | -41.83050 | 41128 ft | 517 kts | 27° |
| 2026-05-06 17:58 | -21.14927 | -41.79316 | 41128 ft | 517 kts | 27° |
| 2026-05-06 17:58 | -21.08663 | -41.75605 | 41126 ft | 519 kts | 28° |
| 2026-05-06 17:59 | -21.02335 | -41.71859 | 41130 ft | 522 kts | 28° |
| 2026-05-06 17:59 | -20.96248 | -41.68258 | 41129 ft | 521 kts | 29° |
| 2026-05-06 18:00 | -20.89969 | -41.64547 | 41129 ft | 520 kts | 29° |
| 2026-05-06 18:00 | -20.83638 | -41.60810 | 41127 ft | 519 kts | 29° |
| 2026-05-06 18:01 | -20.77270 | -41.57055 | 41127 ft | 519 kts | 29° |
| 2026-05-06 18:01 | -20.70978 | -41.53348 | 41128 ft | 519 kts | 29° |
| 2026-05-06 18:02 | -20.64668 | -41.49633 | 41128 ft | 520 kts | 29° |
| 2026-05-06 18:02 | -20.58373 | -41.45932 | 41128 ft | 520 kts | 29° |
| 2026-05-06 18:03 | -20.52049 | -41.42216 | 41127 ft | 519 kts | 29° |
| 2026-05-06 18:03 | -20.45743 | -41.38496 | 41128 ft | 520 kts | 29° |
| 2026-05-06 18:04 | -20.39428 | -41.34759 | 41128 ft | 519 kts | 29° |
| 2026-05-06 18:04 | -20.33134 | -41.31040 | 41128 ft | 520 kts | 29° |
| 2026-05-06 18:05 | -20.26834 | -41.27320 | 41128 ft | 519 kts | 29° |
| 2026-05-06 18:05 | -20.20560 | -41.23620 | 41128 ft | 519 kts | 29° |
| 2026-05-06 18:06 | -20.14228 | -41.19888 | 41129 ft | 519 kts | 29° |
| 2026-05-06 18:06 | -20.07952 | -41.16192 | 41128 ft | 520 kts | 29° |
| 2026-05-06 18:07 | -20.01640 | -41.12480 | 41128 ft | 519 kts | 29° |
| 2026-05-06 18:07 | -19.95352 | -41.08784 | 41128 ft | 520 kts | 29° |
| 2026-05-06 18:08 | -19.89000 | -41.05054 | 41129 ft | 520 kts | 29° |
| 2026-05-06 18:08 | -19.82716 | -41.01380 | 41128 ft | 520 kts | 29° |
| 2026-05-06 18:09 | -19.76361 | -40.97678 | 41128 ft | 520 kts | 29° |
| 2026-05-06 18:09 | -19.70036 | -40.93996 | 41128 ft | 519 kts | 29° |
| 2026-05-06 18:10 | -19.63702 | -40.90313 | 41128 ft | 519 kts | 29° |
| 2026-05-06 18:10 | -19.57420 | -40.86663 | 41128 ft | 517 kts | 29° |
| 2026-05-06 18:11 | -19.52167 | -40.83622 | 41128 ft | 515 kts | 29° |
| 2026-05-06 18:11 | -19.44807 | -40.79365 | 41100 ft | 513 kts | 29° |
| 2026-05-06 18:12 | -19.38564 | -40.75758 | 41101 ft | 513 kts | 29° |
| 2026-05-06 18:12 | -19.32281 | -40.72131 | 41100 ft | 513 kts | 29° |
| 2026-05-06 18:13 | -19.26050 | -40.68537 | 41100 ft | 513 kts | 29° |
| 2026-05-06 18:13 | -19.20073 | -40.65093 | 41100 ft | 513 kts | 29° |
| 2026-05-06 18:14 | -19.15367 | -40.62383 | 41100 ft | 513 kts | 29° |
| 2026-05-06 18:14 | -19.09392 | -40.58945 | 41100 ft | 513 kts | 29° |
| 2026-05-06 18:15 | -19.03135 | -40.55347 | 41100 ft | 513 kts | 30° |
| 2026-05-06 18:15 | -18.96890 | -40.51762 | 41100 ft | 512 kts | 30° |
| 2026-05-06 18:16 | -18.90699 | -40.48209 | 41100 ft | 511 kts | 31° |
| 2026-05-06 18:16 | -18.84424 | -40.44609 | 41098 ft | 511 kts | 32° |
| 2026-05-06 18:17 | -18.78191 | -40.41037 | 41094 ft | 511 kts | 32° |
| 2026-05-06 18:17 | -18.71978 | -40.37480 | 41092 ft | 511 kts | 32° |
| 2026-05-06 18:18 | -18.65764 | -40.33926 | 41102 ft | 511 kts | 31° |
| 2026-05-06 18:18 | -18.59496 | -40.30343 | 41105 ft | 511 kts | 31° |
| 2026-05-06 18:19 | -18.53270 | -40.26788 | 41104 ft | 511 kts | 31° |
| 2026-05-06 18:19 | -18.47075 | -40.23253 | 41099 ft | 511 kts | 31° |
| 2026-05-06 18:20 | -18.40820 | -40.19688 | 41105 ft | 511 kts | 31° |
| 2026-05-06 18:20 | -18.34611 | -40.16151 | 41101 ft | 511 kts | 31° |
| 2026-05-06 18:21 | -18.28368 | -40.12597 | 41102 ft | 511 kts | 31° |
| 2026-05-06 18:21 | -18.22128 | -40.09049 | 41099 ft | 511 kts | 31° |
| 2026-05-06 18:22 | -18.15914 | -40.05518 | 41098 ft | 511 kts | 31° |
| 2026-05-06 18:22 | -18.09687 | -40.01983 | 41102 ft | 511 kts | 31° |
| 2026-05-06 18:23 | -18.03421 | -39.98428 | 41104 ft | 511 kts | 31° |
| 2026-05-06 18:23 | -17.97231 | -39.94902 | 41102 ft | 511 kts | 32° |
| 2026-05-06 18:24 | -17.90992 | -39.91337 | 41105 ft | 511 kts | 32° |
| 2026-05-06 18:24 | -17.84747 | -39.87772 | 41103 ft | 511 kts | 32° |
| 2026-05-06 18:25 | -17.78542 | -39.84233 | 41100 ft | 511 kts | 32° |
| 2026-05-06 18:25 | -17.72302 | -39.80676 | 41100 ft | 511 kts | 32° |
| 2026-05-06 18:26 | -17.66096 | -39.77142 | 41099 ft | 511 kts | 32° |
| 2026-05-06 18:26 | -17.59877 | -39.73602 | 41097 ft | 511 kts | 32° |
| 2026-05-06 18:27 | -17.53635 | -39.70053 | 41098 ft | 511 kts | 32° |
| 2026-05-06 18:27 | -17.47421 | -39.66522 | 41100 ft | 511 kts | 32° |
| 2026-05-06 18:28 | -17.41176 | -39.62977 | 41100 ft | 511 kts | 32° |
| 2026-05-06 18:28 | -17.34953 | -39.59446 | 41098 ft | 511 kts | 32° |
| 2026-05-06 18:29 | -17.28708 | -39.55906 | 41099 ft | 510 kts | 32° |
| 2026-05-06 18:29 | -17.22483 | -39.52380 | 41096 ft | 511 kts | 32° |
| 2026-05-06 18:30 | -17.16296 | -39.48879 | 41096 ft | 511 kts | 32° |
| 2026-05-06 18:30 | -17.10059 | -39.45352 | 41099 ft | 511 kts | 32° |
| 2026-05-06 18:31 | -17.03800 | -39.41815 | 41103 ft | 513 kts | 32° |
| 2026-05-06 18:31 | -16.97545 | -39.38282 | 41097 ft | 516 kts | 32° |
| 2026-05-06 18:32 | -16.91243 | -39.34726 | 41098 ft | 518 kts | 32° |
| 2026-05-06 18:32 | -16.84923 | -39.31163 | 41099 ft | 517 kts | 32° |
| 2026-05-06 18:33 | -16.78606 | -39.27605 | 41103 ft | 518 kts | 32° |
| 2026-05-06 18:33 | -16.72287 | -39.24048 | 41101 ft | 517 kts | 32° |
| 2026-05-06 18:34 | -16.65969 | -39.20493 | 41103 ft | 517 kts | 32° |
| 2026-05-06 18:34 | -16.59651 | -39.16943 | 41102 ft | 518 kts | 32° |
| 2026-05-06 18:35 | -16.53364 | -39.13411 | 41104 ft | 517 kts | 32° |
| 2026-05-06 18:35 | -16.47043 | -39.09864 | 41107 ft | 517 kts | 32° |
| 2026-05-06 18:36 | -16.40701 | -39.06411 | 41102 ft | 516 kts | 31° |
| 2026-05-06 18:36 | -16.34322 | -39.03028 | 41102 ft | 515 kts | 31° |
| 2026-05-06 18:37 | -16.28992 | -39.00204 | 41101 ft | 514 kts | 31° |
| 2026-05-06 18:37 | -16.21756 | -38.96336 | 41099 ft | 513 kts | 31° |
| 2026-05-06 18:38 | -16.15467 | -38.92880 | 41098 ft | 511 kts | 31° |
| 2026-05-06 18:38 | -16.09184 | -38.89427 | 41103 ft | 511 kts | 31° |
| 2026-05-06 18:39 | -16.02930 | -38.85993 | 41098 ft | 510 kts | 31° |
| 2026-05-06 18:40 | -15.93545 | -38.80844 | 41104 ft | 510 kts | 31° |
| 2026-05-06 18:40 | -15.87264 | -38.77402 | 41097 ft | 511 kts | 31° |
| 2026-05-06 18:41 | -15.81009 | -38.73976 | 41099 ft | 511 kts | 31° |
| 2026-05-06 18:41 | -15.74708 | -38.70527 | 41099 ft | 510 kts | 31° |
| 2026-05-06 18:42 | -15.68429 | -38.67092 | 41095 ft | 510 kts | 31° |
| 2026-05-06 18:42 | -15.62193 | -38.63684 | 41092 ft | 510 kts | 31° |
| 2026-05-06 18:43 | -15.55903 | -38.60248 | 41082 ft | 511 kts | 31° |
| 2026-05-06 18:43 | -15.49661 | -38.56841 | 41071 ft | 510 kts | 31° |
| 2026-05-06 18:44 | -15.43444 | -38.53450 | 41071 ft | 510 kts | 31° |
| 2026-05-06 18:44 | -15.37078 | -38.49980 | 41069 ft | 510 kts | 31° |
| 2026-05-06 18:45 | -15.30846 | -38.46586 | 41071 ft | 510 kts | 31° |
| 2026-05-06 18:45 | -15.24556 | -38.43162 | 41070 ft | 511 kts | 31° |
| 2026-05-06 18:46 | -15.18242 | -38.39727 | 41067 ft | 510 kts | 31° |
| 2026-05-06 18:46 | -15.11937 | -38.36300 | 41069 ft | 510 kts | 31° |
| 2026-05-06 18:47 | -15.05668 | -38.32894 | 41082 ft | 511 kts | 31° |
| 2026-05-06 18:47 | -14.99377 | -38.29481 | 41073 ft | 509 kts | 31° |
| 2026-05-06 18:48 | -14.93192 | -38.26126 | 41075 ft | 507 kts | 31° |
| 2026-05-06 18:48 | -14.86900 | -38.22716 | 41071 ft | 503 kts | 31° |
| 2026-05-06 18:49 | -14.80691 | -38.19352 | 41073 ft | 504 kts | 31° |
| 2026-05-06 18:49 | -14.74497 | -38.16001 | 41077 ft | 504 kts | 31° |
| 2026-05-06 18:50 | -14.68268 | -38.12631 | 41076 ft | 503 kts | 31° |
| 2026-05-06 18:50 | -14.62357 | -38.09436 | 41072 ft | 504 kts | 31° |
| 2026-05-06 18:51 | -14.56193 | -38.06106 | 41078 ft | 504 kts | 31° |
| 2026-05-06 18:51 | -14.49970 | -38.02746 | 41074 ft | 503 kts | 31° |
| 2026-05-06 18:52 | -14.43782 | -37.99408 | 41074 ft | 504 kts | 31° |
| 2026-05-06 18:52 | -14.37578 | -37.96063 | 41078 ft | 503 kts | 31° |
| 2026-05-06 18:53 | -14.31352 | -37.92708 | 41080 ft | 504 kts | 31° |
| 2026-05-06 18:53 | -14.25153 | -37.89369 | 41072 ft | 504 kts | 31° |
| 2026-05-06 18:54 | -14.18939 | -37.86025 | 41061 ft | 504 kts | 31° |
| 2026-05-06 18:54 | -14.12751 | -37.82697 | 41042 ft | 503 kts | 31° |
| 2026-05-06 18:55 | -14.06541 | -37.79359 | 41023 ft | 504 kts | 31° |
| 2026-05-06 18:55 | -14.00314 | -37.76014 | 41017 ft | 504 kts | 31° |
| 2026-05-06 18:56 | -13.94126 | -37.72693 | 41023 ft | 504 kts | 31° |
| 2026-05-06 18:56 | -13.87926 | -37.69366 | 41018 ft | 503 kts | 31° |
| 2026-05-06 18:57 | -13.81695 | -37.66025 | 41016 ft | 504 kts | 31° |
| 2026-05-06 18:57 | -13.75831 | -37.62883 | 41018 ft | 503 kts | 31° |
| 2026-05-06 18:58 | -13.69569 | -37.59528 | 41019 ft | 503 kts | 31° |
| 2026-05-06 18:58 | -13.63353 | -37.56201 | 41016 ft | 504 kts | 31° |
| 2026-05-06 18:59 | -13.57149 | -37.52883 | 41014 ft | 504 kts | 31° |
| 2026-05-06 18:59 | -13.50950 | -37.49569 | 41016 ft | 503 kts | 31° |
| 2026-05-06 19:00 | -13.44708 | -37.46234 | 41012 ft | 504 kts | 31° |
| 2026-05-06 19:00 | -13.38506 | -37.42922 | 41014 ft | 504 kts | 31° |
| 2026-05-06 19:01 | -13.32307 | -37.39614 | 41018 ft | 504 kts | 31° |
| 2026-05-06 19:01 | -13.26047 | -37.36275 | 41018 ft | 504 kts | 31° |
| 2026-05-06 19:02 | -13.19854 | -37.32974 | 41026 ft | 504 kts | 31° |
| 2026-05-06 19:02 | -13.13616 | -37.29651 | 41024 ft | 504 kts | 31° |
| 2026-05-06 19:03 | -13.07393 | -37.26336 | 41018 ft | 503 kts | 30° |
| 2026-05-06 19:03 | -13.01239 | -37.23061 | 41023 ft | 503 kts | 30° |
| 2026-05-06 19:04 | -12.94993 | -37.19740 | 41020 ft | 504 kts | 29° |
| 2026-05-06 19:04 | -12.88807 | -37.16453 | 41020 ft | 503 kts | 28° |
| 2026-05-06 19:05 | -12.82589 | -37.13150 | 41020 ft | 502 kts | 28° |
| 2026-05-06 19:05 | -12.76372 | -37.09849 | 41021 ft | 501 kts | 28° |
| 2026-05-06 19:06 | -12.70174 | -37.06560 | 41021 ft | 502 kts | 28° |
| 2026-05-06 19:06 | -12.64016 | -37.03295 | 41021 ft | 501 kts | 28° |
| 2026-05-06 19:07 | -12.57814 | -37.00008 | 41021 ft | 502 kts | 27° |
| 2026-05-06 19:07 | -12.51644 | -36.96740 | 41019 ft | 502 kts | 27° |
| 2026-05-06 19:08 | -12.45393 | -36.93430 | 41014 ft | 502 kts | 27° |
| 2026-05-06 19:08 | -12.39191 | -36.90149 | 40985 ft | 502 kts | 27° |
| 2026-05-06 19:09 | -12.32999 | -36.86874 | 40973 ft | 502 kts | 27° |
| 2026-05-06 19:09 | -12.26836 | -36.83616 | 40963 ft | 502 kts | 27° |
| 2026-05-06 19:10 | -12.20612 | -36.80328 | 40963 ft | 502 kts | 27° |
| 2026-05-06 19:10 | -12.14391 | -36.77043 | 40966 ft | 502 kts | 27° |
| 2026-05-06 19:11 | -12.08200 | -36.73776 | 40963 ft | 502 kts | 27° |
| 2026-05-06 19:11 | -12.01967 | -36.70489 | 40965 ft | 502 kts | 27° |
| 2026-05-06 19:12 | -11.95760 | -36.67217 | 40963 ft | 502 kts | 27° |
| 2026-05-06 19:12 | -11.89523 | -36.63930 | 40986 ft | 503 kts | 27° |
| 2026-05-06 19:13 | -11.83370 | -36.60690 | 40994 ft | 502 kts | 27° |
| 2026-05-06 19:13 | -11.77108 | -36.57394 | 40993 ft | 502 kts | 27° |
| 2026-05-06 19:14 | -11.70926 | -36.54142 | 40991 ft | 502 kts | 27° |
| 2026-05-06 19:14 | -11.64702 | -36.50869 | 40995 ft | 502 kts | 27° |
| 2026-05-06 19:15 | -11.58504 | -36.47611 | 40991 ft | 502 kts | 27° |
| 2026-05-06 19:15 | -11.52301 | -36.44353 | 40995 ft | 502 kts | 27° |
| 2026-05-06 19:16 | -11.46089 | -36.41091 | 40988 ft | 502 kts | 27° |
| 2026-05-06 19:16 | -11.39915 | -36.37851 | 40987 ft | 502 kts | 27° |
| 2026-05-06 19:16 | -11.36788 | -36.36211 | 41190 ft | 500 kts | 27° |
| 2026-05-06 19:17 | -11.33742 | -36.34614 | 41544 ft | 480 kts | 27° |
| 2026-05-06 19:17 | -11.30888 | -36.33118 | 41892 ft | 446 kts | 27° |
| 2026-05-06 19:17 | -11.28197 | -36.31707 | 42225 ft | 436 kts | 27° |
| 2026-05-06 19:17 | -11.25510 | -36.30298 | 42606 ft | 435 kts | 27° |
| 2026-05-06 19:18 | -11.22822 | -36.28890 | 42881 ft | 437 kts | 27° |
| 2026-05-06 19:18 | -11.20101 | -36.27465 | 43090 ft | 441 kts | 27° |
| 2026-05-06 19:18 | -11.17367 | -36.26033 | 43342 ft | 442 kts | 27° |
| 2026-05-06 19:18 | -11.14653 | -36.24612 | 43590 ft | 444 kts | 27° |
| 2026-05-06 19:19 | -11.11946 | -36.23133 | 43835 ft | 445 kts | 30° |
| 2026-05-06 19:19 | -11.09252 | -36.21559 | 44086 ft | 446 kts | 30° |
| 2026-05-06 19:19 | -11.06552 | -36.19977 | 44332 ft | 445 kts | 30° |
| 2026-05-06 19:19 | -11.03872 | -36.18406 | 44579 ft | 446 kts | 30° |
| 2026-05-06 19:20 | -11.01202 | -36.16841 | 44821 ft | 445 kts | 30° |
| 2026-05-06 19:20 | -10.98549 | -36.15286 | 44990 ft | 446 kts | 29° |
| 2026-05-06 19:20 | -10.95861 | -36.13712 | 44987 ft | 447 kts | 29° |
| 2026-05-06 19:21 | -10.90480 | -36.10561 | 44986 ft | 446 kts | 28° |
| 2026-05-06 19:21 | -10.85084 | -36.07403 | 44995 ft | 447 kts | 28° |
| 2026-05-06 19:22 | -10.79681 | -36.04243 | 44994 ft | 447 kts | 28° |
| 2026-05-06 19:22 | -10.74312 | -36.01103 | 44994 ft | 447 kts | 28° |
| 2026-05-06 19:23 | -10.68938 | -35.97961 | 44994 ft | 447 kts | 28° |
| 2026-05-06 19:23 | -10.63515 | -35.94793 | 45001 ft | 454 kts | 28° |
| 2026-05-06 19:24 | -10.57979 | -35.91560 | 45004 ft | 467 kts | 28° |
| 2026-05-06 19:24 | -10.52276 | -35.88230 | 45011 ft | 479 kts | 28° |
| 2026-05-06 19:25 | -10.46388 | -35.84793 | 45010 ft | 488 kts | 28° |
| 2026-05-06 19:25 | -10.40449 | -35.81329 | 45000 ft | 494 kts | 28° |
| 2026-05-06 19:26 | -10.34493 | -35.77856 | 44999 ft | 498 kts | 28° |
| 2026-05-06 19:26 | -10.28455 | -35.74338 | 44991 ft | 498 kts | 28° |
| 2026-05-06 19:27 | -10.22453 | -35.70841 | 44992 ft | 498 kts | 28° |
| 2026-05-06 19:27 | -10.16405 | -35.67320 | 44992 ft | 499 kts | 28° |
| 2026-05-06 19:28 | -10.10371 | -35.63808 | 44992 ft | 499 kts | 28° |
| 2026-05-06 19:28 | -10.04356 | -35.60309 | 44991 ft | 499 kts | 28° |
| 2026-05-06 19:29 | -9.98369 | -35.56827 | 44991 ft | 499 kts | 28° |
| 2026-05-06 19:29 | -9.92378 | -35.53345 | 44991 ft | 499 kts | 28° |
| 2026-05-06 19:30 | -9.86403 | -35.49873 | 44995 ft | 499 kts | 28° |
| 2026-05-06 19:30 | -9.80325 | -35.46344 | 44995 ft | 499 kts | 28° |
| 2026-05-06 19:31 | -9.74258 | -35.42822 | 44994 ft | 499 kts | 28° |
| 2026-05-06 19:31 | -9.65106 | -35.37512 | 44994 ft | 498 kts | 28° |
| 2026-05-06 19:32 | -9.59055 | -35.34003 | 44993 ft | 498 kts | 28° |
| 2026-05-06 19:32 | -9.53026 | -35.30508 | 44993 ft | 499 kts | 28° |
| 2026-05-06 19:33 | -9.46940 | -35.26981 | 44992 ft | 499 kts | 28° |
| 2026-05-06 19:33 | -9.40891 | -35.23478 | 44992 ft | 498 kts | 28° |
| 2026-05-06 19:34 | -9.34889 | -35.20003 | 44992 ft | 499 kts | 28° |
| 2026-05-06 19:34 | -9.28824 | -35.16494 | 44992 ft | 499 kts | 28° |
| 2026-05-06 19:35 | -9.22826 | -35.13024 | 44992 ft | 498 kts | 28° |
| 2026-05-06 19:35 | -9.16806 | -35.09543 | 44991 ft | 499 kts | 28° |
| 2026-05-06 19:36 | -9.10760 | -35.06048 | 44991 ft | 498 kts | 28° |
| 2026-05-06 19:36 | -9.04783 | -35.02804 | 44983 ft | 496 kts | 23° |
| 2026-05-06 19:37 | -8.98437 | -35.00079 | 44971 ft | 494 kts | 20° |
| 2026-05-06 19:37 | -8.93127 | -34.97866 | 44963 ft | 493 kts | 20° |
| 2026-05-06 19:38 | -8.85743 | -34.94791 | 44968 ft | 493 kts | 20° |
| 2026-05-06 19:38 | -8.79411 | -34.92156 | 44968 ft | 492 kts | 20° |
| 2026-05-06 19:39 | -8.73074 | -34.89519 | 44967 ft | 492 kts | 20° |
| 2026-05-06 19:39 | -8.66679 | -34.86859 | 44967 ft | 492 kts | 20° |
| 2026-05-06 19:40 | -8.60374 | -34.84237 | 44967 ft | 491 kts | 20° |
| 2026-05-06 19:40 | -8.54051 | -34.81609 | 44967 ft | 491 kts | 19° |
| 2026-05-06 19:41 | -8.47750 | -34.78991 | 44966 ft | 490 kts | 19° |
| 2026-05-06 19:41 | -8.41435 | -34.76368 | 44966 ft | 490 kts | 19° |
| 2026-05-06 19:42 | -8.35123 | -34.73748 | 44966 ft | 490 kts | 19° |
| 2026-05-06 19:42 | -8.28797 | -34.71122 | 44965 ft | 491 kts | 19° |
| 2026-05-06 19:43 | -8.22454 | -34.68490 | 44965 ft | 491 kts | 19° |
| 2026-05-06 19:43 | -8.16162 | -34.65881 | 44965 ft | 491 kts | 19° |
| 2026-05-06 19:44 | -8.10031 | -34.62923 | 44980 ft | 492 kts | 24° |
| 2026-05-06 19:44 | -8.03979 | -34.59710 | 44965 ft | 493 kts | 25° |
| 2026-05-06 19:45 | -7.99651 | -34.57371 | 44964 ft | 493 kts | 25° |
| 2026-05-06 19:45 | -7.95320 | -34.55030 | 44965 ft | 493 kts | 25° |
| 2026-05-06 19:46 | -7.89292 | -34.51772 | 44964 ft | 491 kts | 25° |
| 2026-05-06 19:46 | -7.83306 | -34.48539 | 44968 ft | 487 kts | 25° |
| 2026-05-06 19:47 | -7.77344 | -34.45319 | 44970 ft | 487 kts | 25° |
| 2026-05-06 19:47 | -7.71378 | -34.42187 | 44970 ft | 486 kts | 24° |
| 2026-05-06 19:48 | -7.65401 | -34.39076 | 44969 ft | 485 kts | 24° |
| 2026-05-06 19:48 | -7.59370 | -34.35938 | 44969 ft | 485 kts | 24° |
| 2026-05-06 19:49 | -7.53412 | -34.32838 | 44964 ft | 484 kts | 24° |
| 2026-05-06 19:49 | -7.47427 | -34.29727 | 44964 ft | 484 kts | 24° |
| 2026-05-06 19:50 | -7.41443 | -34.26616 | 44964 ft | 483 kts | 24° |
| 2026-05-06 19:50 | -7.35511 | -34.23534 | 44964 ft | 483 kts | 24° |
| 2026-05-06 19:51 | -7.29635 | -34.20481 | 44963 ft | 483 kts | 24° |
| 2026-05-06 19:51 | -7.23675 | -34.17386 | 44963 ft | 483 kts | 24° |
| 2026-05-06 19:52 | -7.17734 | -34.14301 | 44963 ft | 483 kts | 24° |
| 2026-05-06 19:52 | -7.11778 | -34.11210 | 44963 ft | 482 kts | 24° |
| 2026-05-06 19:53 | -7.05816 | -34.08116 | 44962 ft | 482 kts | 24° |
| 2026-05-06 19:53 | -6.99892 | -34.05044 | 44961 ft | 482 kts | 24° |
| 2026-05-06 19:54 | -6.93914 | -34.01944 | 44962 ft | 484 kts | 24° |
| 2026-05-06 19:54 | -6.87944 | -33.98849 | 44968 ft | 485 kts | 24° |
| 2026-05-06 19:55 | -6.82164 | -33.95853 | 44969 ft | 486 kts | 24° |
| 2026-05-06 19:55 | -6.76114 | -33.92718 | 44968 ft | 487 kts | 24° |
| 2026-05-06 19:56 | -6.70094 | -33.89600 | 44968 ft | 487 kts | 24° |
| 2026-05-06 19:56 | -6.64094 | -33.86493 | 44967 ft | 487 kts | 24° |
| 2026-05-06 19:57 | -6.58094 | -33.83387 | 44967 ft | 487 kts | 24° |
| 2026-05-06 19:57 | -6.52109 | -33.80289 | 44967 ft | 487 kts | 24° |
| 2026-05-06 19:58 | -6.46080 | -33.77169 | 44967 ft | 488 kts | 24° |
| 2026-05-06 19:58 | -6.40053 | -33.74052 | 44967 ft | 488 kts | 24° |
| 2026-05-06 19:59 | -6.34031 | -33.70937 | 44966 ft | 488 kts | 24° |
| 2026-05-06 19:59 | -6.28009 | -33.67824 | 44966 ft | 488 kts | 24° |
| 2026-05-06 20:00 | -6.21987 | -33.64711 | 44965 ft | 488 kts | 24° |
| 2026-05-06 20:00 | -6.15993 | -33.61614 | 44955 ft | 488 kts | 24° |
| 2026-05-06 20:01 | -6.09978 | -33.58506 | 44944 ft | 488 kts | 24° |
| 2026-05-06 20:01 | -6.03938 | -33.55387 | 44938 ft | 488 kts | 24° |
| 2026-05-06 20:02 | -5.97947 | -33.52293 | 44938 ft | 488 kts | 24° |
| 2026-05-06 20:02 | -5.91937 | -33.49191 | 44937 ft | 488 kts | 24° |
| 2026-05-06 20:03 | -5.85902 | -33.46077 | 44943 ft | 488 kts | 24° |
| 2026-05-06 20:03 | -5.79871 | -33.42965 | 44943 ft | 488 kts | 24° |
| 2026-05-06 20:04 | -5.73814 | -33.39841 | 44943 ft | 488 kts | 24° |
| 2026-05-06 20:04 | -5.67745 | -33.36711 | 44943 ft | 488 kts | 24° |
| 2026-05-06 20:05 | -5.62028 | -33.33763 | 44938 ft | 488 kts | 24° |
| 2026-05-06 20:05 | -5.56004 | -33.30658 | 44938 ft | 488 kts | 24° |
| 2026-05-06 20:06 | -5.49999 | -33.27563 | 44938 ft | 488 kts | 24° |
| 2026-05-06 20:06 | -5.43989 | -33.24467 | 44937 ft | 488 kts | 24° |
| 2026-05-06 20:07 | -5.37987 | -33.21375 | 44937 ft | 488 kts | 24° |
| 2026-05-06 20:07 | -5.31930 | -33.18255 | 44937 ft | 488 kts | 24° |
| 2026-05-06 20:08 | -5.25935 | -33.15169 | 44937 ft | 488 kts | 24° |
| 2026-05-06 20:08 | -5.19899 | -33.12062 | 44936 ft | 488 kts | 24° |
| 2026-05-06 20:09 | -5.13987 | -33.09018 | 44936 ft | 487 kts | 24° |
| 2026-05-06 20:09 | -5.07999 | -33.05938 | 44938 ft | 487 kts | 24° |
| 2026-05-06 20:10 | -5.01976 | -33.02840 | 44936 ft | 486 kts | 25° |
| 2026-05-06 20:10 | -4.95991 | -32.99762 | 44935 ft | 485 kts | 25° |
| 2026-05-06 20:11 | -4.90062 | -32.96712 | 44935 ft | 484 kts | 26° |
| 2026-05-06 20:11 | -4.84256 | -32.93727 | 44941 ft | 483 kts | 26° |
| 2026-05-06 20:12 | -4.78350 | -32.90691 | 44940 ft | 483 kts | 26° |
| 2026-05-06 20:12 | -4.72354 | -32.87609 | 44939 ft | 483 kts | 26° |
| 2026-05-06 20:13 | -4.66394 | -32.84546 | 44940 ft | 483 kts | 26° |
| 2026-05-06 20:13 | -4.60423 | -32.81479 | 44939 ft | 483 kts | 26° |
| 2026-05-06 20:14 | -4.54466 | -32.78410 | 44939 ft | 483 kts | 26° |
| 2026-05-06 20:14 | -4.48480 | -32.75325 | 44939 ft | 482 kts | 26° |
| 2026-05-06 20:15 | -4.42539 | -32.72264 | 44939 ft | 482 kts | 26° |
| 2026-05-06 20:15 | -4.36522 | -32.69165 | 44938 ft | 482 kts | 26° |
| 2026-05-06 20:16 | -4.30617 | -32.66123 | 44937 ft | 482 kts | 26° |
| 2026-05-06 20:16 | -4.24673 | -32.63062 | 44937 ft | 482 kts | 26° |
| 2026-05-06 20:17 | -4.18712 | -32.59994 | 44937 ft | 482 kts | 26° |
| 2026-05-06 20:17 | -4.12802 | -32.56951 | 44936 ft | 482 kts | 26° |
| 2026-05-06 20:18 | -4.06828 | -32.53876 | 44936 ft | 482 kts | 26° |
| 2026-05-06 20:18 | -4.00889 | -32.50821 | 44936 ft | 482 kts | 26° |
| 2026-05-06 20:19 | -3.94935 | -32.47757 | 44935 ft | 482 kts | 26° |
| 2026-05-06 20:19 | -3.89016 | -32.44712 | 44938 ft | 482 kts | 26° |
| 2026-05-06 20:20 | -3.83073 | -32.41620 | 44941 ft | 482 kts | 27° |
| 2026-05-06 20:20 | -3.77080 | -32.38455 | 44941 ft | 483 kts | 27° |
| 2026-05-06 20:21 | -3.71152 | -32.35326 | 44940 ft | 483 kts | 27° |
| 2026-05-06 20:21 | -3.65188 | -32.32177 | 44940 ft | 483 kts | 26° |
| 2026-05-06 20:22 | -3.59242 | -32.29039 | 44939 ft | 483 kts | 26° |
| 2026-05-06 20:22 | -3.53333 | -32.25920 | 44939 ft | 483 kts | 26° |
| 2026-05-06 20:23 | -3.47382 | -32.22780 | 44939 ft | 483 kts | 26° |
| 2026-05-06 20:23 | -3.41446 | -32.19648 | 44938 ft | 483 kts | 26° |
| 2026-05-06 20:24 | -3.35516 | -32.16520 | 44938 ft | 483 kts | 26° |
| 2026-05-06 20:24 | -3.29560 | -32.13379 | 44938 ft | 483 kts | 26° |
| 2026-05-06 20:25 | -3.23649 | -32.10295 | 44937 ft | 482 kts | 26° |
| 2026-05-06 20:25 | -3.17708 | -32.07219 | 44937 ft | 482 kts | 26° |
| 2026-05-06 20:26 | -3.11725 | -32.04121 | 44937 ft | 482 kts | 26° |
| 2026-05-06 20:26 | -3.05788 | -32.01048 | 44936 ft | 482 kts | 26° |
| 2026-05-06 20:27 | -2.99837 | -31.97968 | 44935 ft | 483 kts | 26° |
| 2026-05-06 20:27 | -2.93880 | -31.94885 | 44934 ft | 483 kts | 26° |
| 2026-05-06 20:28 | -2.87906 | -31.91793 | 44940 ft | 486 kts | 27° |
| 2026-05-06 20:28 | -2.81888 | -31.88679 | 44941 ft | 487 kts | 27° |
| 2026-05-06 20:29 | -2.75878 | -31.85570 | 44940 ft | 488 kts | 27° |
| 2026-05-06 20:29 | -2.69855 | -31.82454 | 44940 ft | 488 kts | 27° |
| 2026-05-06 20:30 | -2.60818 | -31.77780 | 44939 ft | 489 kts | 27° |
| 2026-05-06 20:31 | -2.54787 | -31.74661 | 44939 ft | 489 kts | 27° |
| 2026-05-06 20:31 | -2.48754 | -31.71541 | 44939 ft | 489 kts | 27° |
| 2026-05-06 20:32 | -2.42733 | -31.68428 | 44938 ft | 489 kts | 27° |
| 2026-05-06 20:32 | -2.36667 | -31.65292 | 44938 ft | 489 kts | 27° |
| 2026-05-06 20:33 | -2.30668 | -31.62190 | 44938 ft | 489 kts | 27° |
| 2026-05-06 20:33 | -2.24604 | -31.59057 | 44938 ft | 489 kts | 27° |
| 2026-05-06 20:34 | -2.18617 | -31.55962 | 44938 ft | 489 kts | 27° |
| 2026-05-06 20:34 | -2.12582 | -31.52843 | 44937 ft | 489 kts | 27° |
| 2026-05-06 20:35 | -2.06544 | -31.49723 | 44937 ft | 489 kts | 27° |
| 2026-05-06 20:35 | -2.00545 | -31.46623 | 44937 ft | 489 kts | 27° |
| 2026-05-06 20:36 | -1.94514 | -31.43507 | 44936 ft | 489 kts | 27° |
| 2026-05-06 20:36 | -1.88493 | -31.40396 | 44939 ft | 489 kts | 27° |
| 2026-05-06 20:37 | -1.82472 | -31.37286 | 44940 ft | 489 kts | 27° |
| 2026-05-06 20:37 | -1.76455 | -31.34179 | 44940 ft | 489 kts | 27° |
| 2026-05-06 20:38 | -1.70387 | -31.31044 | 44940 ft | 489 kts | 27° |
| 2026-05-06 20:38 | -1.64374 | -31.27939 | 44940 ft | 489 kts | 27° |
| 2026-05-06 20:39 | -1.58346 | -31.24825 | 44939 ft | 489 kts | 27° |
| 2026-05-06 20:39 | -1.52310 | -31.21708 | 44939 ft | 489 kts | 27° |
| 2026-05-06 20:40 | -1.46294 | -31.18602 | 44939 ft | 489 kts | 27° |
| 2026-05-06 20:40 | -1.40254 | -31.15483 | 44939 ft | 489 kts | 26° |
| 2026-05-06 20:41 | -1.34211 | -31.12363 | 44938 ft | 489 kts | 26° |
| 2026-05-06 20:41 | -1.28218 | -31.09269 | 44938 ft | 489 kts | 26° |
| 2026-05-06 20:42 | -1.22165 | -31.06144 | 44938 ft | 489 kts | 26° |
| 2026-05-06 20:42 | -1.16150 | -31.03039 | 44937 ft | 488 kts | 26° |
| 2026-05-06 20:43 | -1.10153 | -30.99943 | 44936 ft | 488 kts | 26° |
| 2026-05-06 20:43 | -1.04130 | -30.96834 | 44936 ft | 488 kts | 26° |
| 2026-05-06 20:44 | -0.98193 | -30.93770 | 44936 ft | 488 kts | 26° |
| 2026-05-06 20:44 | -0.92076 | -30.90611 | 44937 ft | 489 kts | 26° |
| 2026-05-06 20:45 | -0.86065 | -30.87503 | 44941 ft | 489 kts | 26° |
| 2026-05-06 20:45 | -0.80019 | -30.84377 | 44940 ft | 490 kts | 26° |
| 2026-05-06 20:46 | -0.73997 | -30.81263 | 44939 ft | 490 kts | 26° |
| 2026-05-06 20:46 | -0.67964 | -30.78143 | 44940 ft | 490 kts | 26° |
| 2026-05-06 20:47 | -0.61920 | -30.75018 | 44940 ft | 490 kts | 26° |
| 2026-05-06 20:47 | -0.55893 | -30.71902 | 44938 ft | 490 kts | 26° |
| 2026-05-06 20:48 | -0.49811 | -30.68757 | 44939 ft | 490 kts | 26° |
| 2026-05-06 20:48 | -0.43779 | -30.65639 | 44939 ft | 490 kts | 26° |
| 2026-05-06 20:49 | -0.37753 | -30.62523 | 44938 ft | 490 kts | 26° |
| 2026-05-06 20:49 | -0.31716 | -30.59402 | 44938 ft | 490 kts | 26° |
| 2026-05-06 20:50 | -0.25663 | -30.56273 | 44937 ft | 490 kts | 26° |
| 2026-05-06 20:50 | -0.19648 | -30.53163 | 44938 ft | 490 kts | 26° |
| 2026-05-06 20:51 | -0.13602 | -30.50037 | 44938 ft | 490 kts | 26° |
| 2026-05-06 20:51 | -0.07568 | -30.46917 | 44938 ft | 490 kts | 26° |
| 2026-05-06 20:52 | -0.01549 | -30.43806 | 44937 ft | 490 kts | 26° |
| 2026-05-06 20:52 | 0.04506 | -30.40676 | 44937 ft | 490 kts | 26° |
| 2026-05-06 20:53 | 0.10540 | -30.37556 | 44937 ft | 490 kts | 26° |
| 2026-05-06 20:53 | 0.16567 | -30.34441 | 44941 ft | 490 kts | 26° |
| 2026-05-06 20:54 | 0.22450 | -30.31399 | 44940 ft | 490 kts | 26° |
| 2026-05-06 20:54 | 0.28479 | -30.28281 | 44940 ft | 490 kts | 26° |
| 2026-05-06 20:55 | 0.34528 | -30.25152 | 44939 ft | 490 kts | 26° |
| 2026-05-06 20:55 | 0.40587 | -30.22018 | 44940 ft | 490 kts | 26° |
| 2026-05-06 20:56 | 0.46619 | -30.18897 | 44939 ft | 490 kts | 26° |
| 2026-05-06 20:56 | 0.52611 | -30.15798 | 44938 ft | 490 kts | 26° |
| 2026-05-06 20:57 | 0.58655 | -30.12672 | 44939 ft | 490 kts | 26° |
| 2026-05-06 20:57 | 0.64695 | -30.09547 | 44938 ft | 490 kts | 26° |
| 2026-05-06 20:58 | 0.70732 | -30.06424 | 44938 ft | 490 kts | 26° |
| 2026-05-06 20:58 | 0.76763 | -30.03304 | 44938 ft | 490 kts | 26° |
| 2026-05-06 20:59 | 0.82795 | -30.00183 | 44938 ft | 490 kts | 26° |
| 2026-05-06 20:59 | 0.88846 | -29.97053 | 44937 ft | 490 kts | 26° |
| 2026-05-06 21:00 | 0.94845 | -29.93948 | 44937 ft | 490 kts | 26° |
| 2026-05-06 21:00 | 1.00913 | -29.90809 | 44939 ft | 490 kts | 26° |
| 2026-05-06 21:01 | 1.06927 | -29.87697 | 44936 ft | 487 kts | 26° |
| 2026-05-06 21:01 | 1.12896 | -29.84609 | 44940 ft | 484 kts | 27° |
| 2026-05-06 21:02 | 1.18849 | -29.81528 | 44940 ft | 483 kts | 27° |
| 2026-05-06 21:02 | 1.24814 | -29.78441 | 44940 ft | 483 kts | 27° |
| 2026-05-06 21:03 | 1.30773 | -29.75357 | 44940 ft | 483 kts | 27° |
| 2026-05-06 21:03 | 1.36742 | -29.72267 | 44939 ft | 483 kts | 27° |
| 2026-05-06 21:04 | 1.42644 | -29.69194 | 44939 ft | 483 kts | 27° |
| 2026-05-06 21:04 | 1.48595 | -29.66079 | 44939 ft | 483 kts | 27° |
| 2026-05-06 21:05 | 1.54542 | -29.62966 | 44938 ft | 483 kts | 27° |
| 2026-05-06 21:05 | 1.60485 | -29.59854 | 44937 ft | 483 kts | 27° |
| 2026-05-06 21:06 | 1.66415 | -29.56749 | 44937 ft | 483 kts | 27° |
| 2026-05-06 21:06 | 1.72306 | -29.53664 | 44937 ft | 483 kts | 27° |
| 2026-05-06 21:07 | 1.78275 | -29.50538 | 44936 ft | 483 kts | 27° |
| 2026-05-06 21:07 | 1.84175 | -29.47449 | 44936 ft | 483 kts | 27° |
| 2026-05-06 21:08 | 1.90094 | -29.44348 | 44936 ft | 482 kts | 27° |
| 2026-05-06 21:08 | 1.96028 | -29.41241 | 44936 ft | 482 kts | 27° |
| 2026-05-06 21:09 | 2.01950 | -29.38138 | 44935 ft | 482 kts | 27° |
| 2026-05-06 21:09 | 2.07877 | -29.35033 | 44935 ft | 482 kts | 27° |
| 2026-05-06 21:10 | 2.13803 | -29.31929 | 44942 ft | 482 kts | 27° |
| 2026-05-06 21:10 | 2.19728 | -29.28825 | 44941 ft | 483 kts | 27° |
| 2026-05-06 21:11 | 2.25669 | -29.25712 | 44941 ft | 483 kts | 27° |
| 2026-05-06 21:11 | 2.31589 | -29.22609 | 44940 ft | 483 kts | 27° |
| 2026-05-06 21:12 | 2.37544 | -29.19488 | 44939 ft | 483 kts | 27° |
| 2026-05-06 21:12 | 2.43480 | -29.16377 | 44940 ft | 483 kts | 27° |
| 2026-05-06 21:13 | 2.49424 | -29.13261 | 44939 ft | 483 kts | 27° |
| 2026-05-06 21:13 | 2.55326 | -29.10166 | 44968 ft | 483 kts | 27° |
| 2026-05-06 21:14 | 2.61246 | -29.07063 | 44966 ft | 483 kts | 27° |
| 2026-05-06 21:14 | 2.67194 | -29.03944 | 44965 ft | 483 kts | 27° |
| 2026-05-06 21:15 | 2.73106 | -29.00843 | 44964 ft | 483 kts | 27° |
| 2026-05-06 21:15 | 2.79054 | -28.97724 | 44964 ft | 484 kts | 27° |
| 2026-05-06 21:16 | 2.84978 | -28.94616 | 44964 ft | 484 kts | 27° |
| 2026-05-06 21:16 | 2.90930 | -28.91495 | 44964 ft | 485 kts | 27° |
| 2026-05-06 21:17 | 2.96900 | -28.88363 | 44964 ft | 486 kts | 27° |
| 2026-05-06 21:17 | 3.02848 | -28.85242 | 44964 ft | 486 kts | 28° |
| 2026-05-06 21:18 | 3.08813 | -28.82110 | 44964 ft | 486 kts | 28° |
| 2026-05-06 21:18 | 3.14779 | -28.78982 | 44966 ft | 486 kts | 28° |
| 2026-05-06 21:19 | 3.20782 | -28.75843 | 44966 ft | 486 kts | 28° |
| 2026-05-06 21:19 | 3.26718 | -28.72739 | 44966 ft | 486 kts | 28° |
| 2026-05-06 21:20 | 3.32694 | -28.69612 | 44965 ft | 486 kts | 28° |
| 2026-05-06 21:20 | 3.38699 | -28.66471 | 44965 ft | 486 kts | 28° |
| 2026-05-06 21:21 | 3.44651 | -28.63357 | 44965 ft | 486 kts | 28° |
| 2026-05-06 21:21 | 3.50613 | -28.60236 | 44965 ft | 486 kts | 28° |
| 2026-05-06 21:22 | 3.56605 | -28.57100 | 44964 ft | 486 kts | 28° |
| 2026-05-06 21:22 | 3.62588 | -28.53968 | 44964 ft | 486 kts | 28° |
| 2026-05-06 21:23 | 3.68562 | -28.50841 | 44963 ft | 486 kts | 28° |
| 2026-05-06 21:23 | 3.74531 | -28.47715 | 44964 ft | 486 kts | 28° |
| 2026-05-06 21:24 | 3.80497 | -28.44590 | 44962 ft | 486 kts | 28° |
| 2026-05-06 21:24 | 3.86451 | -28.41472 | 44962 ft | 486 kts | 28° |
| 2026-05-06 21:25 | 3.92419 | -28.38345 | 44962 ft | 486 kts | 28° |
| 2026-05-06 21:25 | 3.98409 | -28.35207 | 44962 ft | 486 kts | 28° |
| 2026-05-06 21:26 | 4.04375 | -28.32081 | 44965 ft | 486 kts | 28° |
| 2026-05-06 21:26 | 4.10259 | -28.28997 | 44965 ft | 486 kts | 28° |
| 2026-05-06 21:27 | 4.16221 | -28.25871 | 44968 ft | 486 kts | 28° |
| 2026-05-06 21:27 | 4.22208 | -28.22732 | 44968 ft | 487 kts | 28° |
| 2026-05-06 21:28 | 4.28179 | -28.19601 | 44968 ft | 487 kts | 28° |
| 2026-05-06 21:28 | 4.34168 | -28.16459 | 44968 ft | 487 kts | 28° |
| 2026-05-06 21:29 | 4.40156 | -28.13318 | 44966 ft | 487 kts | 28° |
| 2026-05-06 21:29 | 4.46131 | -28.10183 | 44966 ft | 487 kts | 28° |
| 2026-05-06 21:30 | 4.52116 | -28.07043 | 44966 ft | 487 kts | 28° |
| 2026-05-06 21:30 | 4.58066 | -28.03919 | 44966 ft | 487 kts | 28° |
| 2026-05-06 21:31 | 4.64047 | -28.00779 | 44965 ft | 487 kts | 28° |
| 2026-05-06 21:31 | 4.70035 | -27.97635 | 44965 ft | 487 kts | 28° |
| 2026-05-06 21:32 | 4.75973 | -27.94517 | 44965 ft | 487 kts | 28° |
| 2026-05-06 21:32 | 4.84933 | -27.89810 | 44965 ft | 487 kts | 28° |
| 2026-05-06 21:33 | 4.90932 | -27.86658 | 44964 ft | 487 kts | 28° |
| 2026-05-06 21:33 | 4.96913 | -27.83514 | 44964 ft | 487 kts | 28° |
| 2026-05-06 21:34 | 5.02858 | -27.80389 | 44963 ft | 487 kts | 28° |
| 2026-05-06 21:34 | 5.08858 | -27.77235 | 44963 ft | 487 kts | 28° |
| 2026-05-06 21:35 | 5.14821 | -27.74099 | 44966 ft | 487 kts | 28° |
| 2026-05-06 21:35 | 5.20787 | -27.70960 | 44966 ft | 487 kts | 28° |
| 2026-05-06 21:36 | 5.26766 | -27.67815 | 44966 ft | 487 kts | 28° |
| 2026-05-06 21:36 | 5.32759 | -27.64661 | 44969 ft | 487 kts | 28° |
| 2026-05-06 21:37 | 5.38711 | -27.61528 | 44979 ft | 487 kts | 28° |
| 2026-05-06 21:37 | 5.44701 | -27.58375 | 44990 ft | 487 kts | 28° |
| 2026-05-06 21:38 | 5.50662 | -27.55236 | 44991 ft | 487 kts | 28° |
| 2026-05-06 21:38 | 5.56652 | -27.52081 | 44991 ft | 487 kts | 28° |
| 2026-05-06 21:39 | 5.62625 | -27.48934 | 44991 ft | 487 kts | 28° |
| 2026-05-06 21:39 | 5.68601 | -27.45785 | 44990 ft | 487 kts | 28° |
| 2026-05-06 21:40 | 5.74547 | -27.42651 | 44990 ft | 487 kts | 28° |
| 2026-05-06 21:40 | 5.80536 | -27.39494 | 44990 ft | 487 kts | 28° |
| 2026-05-06 21:41 | 5.86492 | -27.36353 | 44989 ft | 487 kts | 28° |
| 2026-05-06 21:41 | 5.92491 | -27.33189 | 44993 ft | 487 kts | 28° |
| 2026-05-06 21:42 | 5.98452 | -27.30044 | 44992 ft | 487 kts | 28° |
| 2026-05-06 21:42 | 6.04453 | -27.26877 | 44992 ft | 487 kts | 28° |
| 2026-05-06 21:43 | 6.10419 | -27.23728 | 44992 ft | 487 kts | 28° |
| 2026-05-06 21:43 | 6.16399 | -27.20570 | 44995 ft | 487 kts | 28° |
| 2026-05-06 21:44 | 6.22383 | -27.17410 | 44994 ft | 487 kts | 28° |
| 2026-05-06 21:44 | 6.28336 | -27.14266 | 44994 ft | 487 kts | 28° |
| 2026-05-06 21:45 | 6.34317 | -27.11105 | 44994 ft | 487 kts | 28° |
| 2026-05-06 21:45 | 6.40304 | -27.07941 | 44993 ft | 487 kts | 28° |
| 2026-05-06 21:46 | 6.46277 | -27.04782 | 44993 ft | 487 kts | 28° |
| 2026-05-06 21:46 | 6.52234 | -27.01630 | 44993 ft | 487 kts | 28° |
| 2026-05-06 21:47 | 6.58232 | -26.98455 | 44992 ft | 487 kts | 28° |
| 2026-05-06 21:47 | 6.64184 | -26.95303 | 44992 ft | 488 kts | 28° |
| 2026-05-06 21:48 | 6.70180 | -26.92127 | 44992 ft | 488 kts | 28° |
| 2026-05-06 21:48 | 6.76152 | -26.88963 | 44991 ft | 488 kts | 28° |
| 2026-05-06 21:49 | 6.82134 | -26.85794 | 44992 ft | 488 kts | 28° |
| 2026-05-06 21:49 | 6.88145 | -26.82607 | 44991 ft | 488 kts | 28° |
| 2026-05-06 21:50 | 6.94139 | -26.79426 | 44986 ft | 492 kts | 26° |
| 2026-05-06 21:50 | 7.00200 | -26.76215 | 44994 ft | 501 kts | 27° |
| 2026-05-06 21:51 | 7.06380 | -26.72936 | 44997 ft | 506 kts | 27° |
| 2026-05-06 21:51 | 7.12592 | -26.69638 | 44993 ft | 508 kts | 27° |
| 2026-05-06 21:52 | 7.18852 | -26.66315 | 44993 ft | 508 kts | 27° |
| 2026-05-06 21:52 | 7.25073 | -26.63012 | 44993 ft | 509 kts | 27° |
| 2026-05-06 21:53 | 7.31310 | -26.59698 | 44993 ft | 509 kts | 27° |
| 2026-05-06 21:53 | 7.37561 | -26.56377 | 44993 ft | 509 kts | 27° |
| 2026-05-06 21:54 | 7.43760 | -26.53081 | 44993 ft | 509 kts | 27° |
| 2026-05-06 21:54 | 7.49994 | -26.49766 | 44993 ft | 509 kts | 27° |
| 2026-05-06 21:55 | 7.56222 | -26.46454 | 44993 ft | 509 kts | 27° |
| 2026-05-06 21:55 | 7.62480 | -26.43124 | 44993 ft | 509 kts | 27° |
| 2026-05-06 21:56 | 7.68713 | -26.39806 | 44993 ft | 509 kts | 27° |
| 2026-05-06 21:56 | 7.74925 | -26.36499 | 44993 ft | 509 kts | 27° |
| 2026-05-06 21:57 | 7.81159 | -26.33178 | 44993 ft | 509 kts | 27° |
| 2026-05-06 21:57 | 7.87395 | -26.29856 | 44993 ft | 509 kts | 27° |
| 2026-05-06 21:58 | 7.93636 | -26.26530 | 44993 ft | 509 kts | 27° |
| 2026-05-06 21:58 | 7.99882 | -26.23200 | 44993 ft | 509 kts | 27° |
| 2026-05-06 21:59 | 8.06087 | -26.19890 | 44993 ft | 509 kts | 27° |
| 2026-05-06 21:59 | 8.12347 | -26.16550 | 44992 ft | 509 kts | 27° |
| 2026-05-06 22:00 | 8.18573 | -26.13227 | 44992 ft | 509 kts | 27° |
| 2026-05-06 22:00 | 8.24807 | -26.09899 | 44992 ft | 509 kts | 27° |
| 2026-05-06 22:01 | 8.31001 | -26.06591 | 44993 ft | 509 kts | 27° |
| 2026-05-06 22:01 | 8.37223 | -26.03268 | 44993 ft | 509 kts | 27° |
| 2026-05-06 22:02 | 8.43480 | -25.99925 | 44993 ft | 509 kts | 27° |
| 2026-05-06 22:02 | 8.49684 | -25.96610 | 44993 ft | 509 kts | 27° |
| 2026-05-06 22:03 | 8.55911 | -25.93281 | 44993 ft | 509 kts | 27° |
| 2026-05-06 22:03 | 8.62161 | -25.89938 | 44993 ft | 509 kts | 27° |
| 2026-05-06 22:04 | 8.68376 | -25.86614 | 44993 ft | 509 kts | 27° |